VTUW

Nakhon Phanom Airport

Thailand
TAF VTUW 212300Z 2200/2224 06005KT 9999 FEW025 BKN100 TEMPO 2209/2212 VRB10G20KT 5000 TSRA FEW018CB BKN020 BKN080
Issued Valid From Valid To
Sep-21 @ 23:00 UTC
(4 hours ago)
Sep-22 @ 00:00 UTC
(3 hours ago)
Sep-23 @ 00:00 UTC
(in 21 hours)
to
to
TAF VTUW 212300Z 2200/2224 06005KT 9999 FEW025 BKN100 TEMPO 2209/2212 VRB10G20KT 5000 TSRA FEW018CB BKN020 BKN080
Issued Sep-21 @ 23:00 UTC
(4 hours ago)
Valid From Sep-22 @ 00:00 UTC
(3 hours ago)
Valid To Sep-23 @ 00:00 UTC
(in 21 hours)
-
-